Terminal Aerodrome Forecast
Issued by NWS Wilmington, OH

Current Version | Previous Version | Text Only | Print | Product List | Glossary Off
Versions: 1 2 3 4 5 6 7 8 9 10 11 12 13 14 15 16 17 18

000
FTUS41 KILN 300956 AAA
TAFDAY
TAF AMD
KDAY 300956Z 3010/3106 18005KT P6SM SCT050 BKN120
      TEMPO 3010/3011 5SM -TSRA SCT050CB BKN100
     FM301400 22009KT P6SM BKN040
     FM302000 21007KT P6SM VCSH BKN040
     FM310000 22005KT P6SM SCT035 SCT200=

USA.gov is the U.S. government's official web portal to all federal, state and local government web resources and services.